Time;durP1;ratioP1;P1;durP2;ratioP2;P2;SDS_P1;SDS_P2;PMS_P1;PMS_P2;Temp;Humidity;BMP_temperature;BMP_pressure;BME280_temperature;BME280_humidity;BME280_pressure;Samples;Min_cycle;Max_cycle;Signal;HPM_P1;HPM_P2
2024/01/11 00:01:47;;;;;;;30.60;18.92;;;-5.10;99.90;;;;;;4869920;29;20037;-43
2024/01/11 00:04:13;;;;;;;31.10;19.73;;;-5.10;99.90;;;;;;4873877;29;20120;-44
2024/01/11 00:06:45;;;;;;;31.55;19.75;;;-5.10;99.90;;;;;;4871338;29;20488;-41
2024/01/11 00:09:10;;;;;;;30.85;19.23;;;-5.10;99.90;;;;;;4868981;29;20532;-41
2024/01/11 00:11:36;;;;;;;29.02;18.70;;;-5.20;99.90;;;;;;4874691;29;20080;-41
2024/01/11 00:14:02;;;;;;;27.80;17.63;;;-5.20;99.90;;;;;;4868594;29;20045;-42
2024/01/11 00:16:27;;;;;;;28.40;17.95;;;-5.20;99.90;;;;;;4874225;29;20097;-42
2024/01/11 00:18:53;;;;;;;29.23;18.52;;;-5.20;99.90;;;;;;4881907;29;20425;-43
2024/01/11 00:21:19;;;;;;;29.15;19.38;;;-5.20;99.90;;;;;;4872456;29;20127;-41
2024/01/11 00:23:44;;;;;;;28.02;18.25;;;-5.20;99.90;;;;;;4839775;29;20088;-43
2024/01/11 00:26:13;;;;;;;28.85;18.80;;;-5.10;99.90;;;;;;4875790;29;20053;-41
2024/01/11 00:28:39;;;;;;;30.60;18.77;;;-5.20;99.90;;;;;;4872506;29;20060;-43
2024/01/11 00:31:04;;;;;;;28.42;18.98;;;-5.20;99.90;;;;;;4853679;29;20074;-44
2024/01/11 00:33:30;;;;;;;28.70;19.38;;;-5.20;99.90;;;;;;4871876;29;20146;-43
2024/01/11 00:35:56;;;;;;;28.45;17.17;;;-5.20;99.90;;;;;;4873698;29;20143;-42
2024/01/11 00:38:21;;;;;;;29.00;18.40;;;-5.20;99.90;;;;;;4872412;29;20048;-42
2024/01/11 00:40:49;;;;;;;31.05;19.80;;;-5.20;99.90;;;;;;4871626;29;20486;-42
2024/01/11 00:43:14;;;;;;;25.92;15.80;;;-5.20;99.90;;;;;;4868134;29;20052;-42
2024/01/11 00:45:40;;;;;;;31.38;18.08;;;-5.20;99.90;;;;;;4873199;29;20049;-45
2024/01/11 00:48:06;;;;;;;27.98;16.67;;;-5.20;99.90;;;;;;4872176;29;20420;-43
2024/01/11 00:50:31;;;;;;;27.90;16.10;;;-5.20;99.90;;;;;;4870717;29;20113;-41
2024/01/11 00:52:57;;;;;;;28.83;17.27;;;-5.10;99.90;;;;;;4873640;29;20155;-45
2024/01/11 00:55:24;;;;;;;31.90;20.10;;;-5.20;99.90;;;;;;4871191;29;20055;-41
2024/01/11 00:57:50;;;;;;;27.48;18.05;;;-5.10;99.90;;;;;;4871990;29;20049;-43
2024/01/11 01:00:16;;;;;;;32.53;20.45;;;-5.10;99.90;;;;;;4870701;29;20055;-42
2024/01/11 01:02:42;;;;;;;29.88;18.45;;;-5.10;99.90;;;;;;4872946;29;20045;-41
2024/01/11 01:05:08;;;;;;;25.75;15.50;;;-5.10;99.90;;;;;;4850152;29;20055;-42
2024/01/11 01:07:34;;;;;;;29.38;19.15;;;-5.20;99.90;;;;;;4870478;29;20041;-41
2024/01/11 01:09:59;;;;;;;30.75;20.30;;;-5.10;99.90;;;;;;4870877;29;20049;-41
2024/01/11 01:12:25;;;;;;;31.92;20.38;;;-5.10;99.90;;;;;;4868571;29;20037;-41
2024/01/11 01:14:51;;;;;;;27.20;16.00;;;-5.20;99.90;;;;;;4870663;29;20044;-41
2024/01/11 01:17:17;;;;;;;33.75;19.85;;;-5.20;99.90;;;;;;4868718;29;20076;-42
2024/01/11 01:19:43;;;;;;;31.60;19.55;;;-5.20;99.90;;;;;;4870373;29;20033;-46
2024/01/11 01:22:09;;;;;;;32.95;21.42;;;-5.20;99.90;;;;;;4872012;29;20089;-41
2024/01/11 01:24:34;;;;;;;31.95;20.85;;;-5.30;99.90;;;;;;4869513;29;20390;-42
2024/01/11 01:27:00;;;;;;;31.77;20.60;;;-5.30;99.90;;;;;;4867384;29;20041;-44
2024/01/11 01:29:26;;;;;;;35.88;21.88;;;-5.30;99.90;;;;;;4872855;29;20052;-41
2024/01/11 01:31:52;;;;;;;33.00;21.23;;;-5.30;99.90;;;;;;4849536;29;20408;-42
2024/01/11 01:34:18;;;;;;;33.42;21.33;;;-5.40;99.90;;;;;;4874543;29;20063;-43
2024/01/11 01:36:43;;;;;;;29.23;19.27;;;-5.40;99.90;;;;;;4859288;29;20041;-43
2024/01/11 01:39:09;;;;;;;33.78;22.08;;;-5.40;99.90;;;;;;4874018;29;20361;-42
2024/01/11 01:41:34;;;;;;;36.72;21.50;;;-5.40;99.90;;;;;;4867838;29;21451;-44
2024/01/11 01:44:00;;;;;;;37.28;21.73;;;-5.40;99.90;;;;;;4870539;29;20037;-42
2024/01/11 01:46:27;;;;;;;34.58;22.50;;;-5.40;99.90;;;;;;4871093;29;20052;-42
2024/01/11 01:48:55;;;;;;;37.83;22.15;;;-5.40;99.90;;;;;;4872763;29;20052;-42
2024/01/11 01:51:22;;;;;;;31.33;20.88;;;-5.50;99.90;;;;;;4859447;29;20505;-42
2024/01/11 01:53:50;;;;;;;38.67;23.08;;;-5.50;99.90;;;;;;4873213;29;20049;-42
2024/01/11 01:56:16;;;;;;;34.08;21.90;;;-5.50;99.90;;;;;;4868226;29;20594;-43
2024/01/11 01:58:43;;;;;;;35.90;21.95;;;-5.50;99.90;;;;;;4858592;29;20055;-43
2024/01/11 02:01:09;;;;;;;40.05;22.73;;;-5.50;99.90;;;;;;4873576;29;20048;-41
2024/01/11 02:03:36;;;;;;;35.95;23.33;;;;;;;;;;4871296;29;20053;-43
2024/01/11 02:06:04;;;;;;;37.47;23.02;;;-5.60;99.90;;;;;;4867873;29;20045;-43
2024/01/11 02:08:31;;;;;;;35.70;22.38;;;-5.60;99.90;;;;;;4871883;29;20059;-42
2024/01/11 02:10:59;;;;;;;39.42;23.98;;;-5.70;99.90;;;;;;4868556;29;20213;-41
2024/01/11 02:13:25;;;;;;;38.38;23.33;;;-5.70;99.90;;;;;;4867277;29;20369;-42
2024/01/11 02:15:50;;;;;;;36.65;23.38;;;-5.70;99.90;;;;;;4870186;29;20044;-44
2024/01/11 02:18:16;;;;;;;42.00;24.17;;;-5.80;99.90;;;;;;4870411;29;20041;-41
2024/01/11 02:20:42;;;;;;;42.40;26.10;;;-5.80;99.90;;;;;;4867315;29;20127;-44
2024/01/11 02:23:14;;;;;;;42.90;25.30;;;-5.80;99.90;;;;;;4879000;29;20081;-43
2024/01/11 02:25:40;;;;;;;42.15;25.02;;;-5.80;99.90;;;;;;4873152;29;20352;-41
2024/01/11 02:28:06;;;;;;;38.60;24.27;;;-5.90;99.90;;;;;;4868880;29;20045;-41
2024/01/11 02:30:32;;;;;;;44.17;25.63;;;-5.90;99.90;;;;;;4870834;29;20049;-42
2024/01/11 02:32:57;;;;;;;42.13;27.33;;;-5.90;99.90;;;;;;4869549;29;20475;-43
2024/01/11 02:35:25;;;;;;;44.03;24.00;;;-5.90;99.90;;;;;;4870552;29;20162;-41
2024/01/11 02:37:50;;;;;;;47.45;27.27;;;-5.90;99.90;;;;;;4865026;29;20049;-44
2024/01/11 02:40:16;;;;;;;47.60;27.33;;;-5.90;99.90;;;;;;4870289;29;20045;-43
2024/01/11 02:42:42;;;;;;;45.95;27.40;;;-5.80;99.90;;;;;;4869174;29;20037;-42
2024/01/11 02:45:08;;;;;;;47.40;27.98;;;-5.90;99.90;;;;;;4873462;29;20515;-42
2024/01/11 02:47:33;;;;;;;42.15;27.15;;;-5.90;99.90;;;;;;4870546;29;20080;-42
2024/01/11 02:49:59;;;;;;;42.83;25.13;;;-6.00;99.90;;;;;;4866353;29;20053;-43
2024/01/11 02:52:25;;;;;;;48.50;28.10;;;-5.90;99.90;;;;;;4868066;29;20076;-41
2024/01/11 02:54:50;;;;;;;44.38;27.20;;;-5.90;99.90;;;;;;4868726;29;20456;-43
2024/01/11 02:57:16;;;;;;;46.33;26.85;;;-5.90;99.90;;;;;;4856395;29;20093;-41
2024/01/11 02:59:43;;;;;;;43.28;26.13;;;-5.90;99.90;;;;;;4874267;29;20041;-43
2024/01/11 03:02:09;;;;;;;44.50;26.52;;;-5.90;99.90;;;;;;4874941;29;20417;-41
2024/01/11 03:04:34;;;;;;;47.80;27.75;;;-5.90;99.90;;;;;;4873442;29;20095;-42
2024/01/11 03:07:00;;;;;;;44.63;27.15;;;-5.90;99.90;;;;;;4856070;29;20081;-42
2024/01/11 03:09:25;;;;;;;43.90;26.58;;;-6.00;99.90;;;;;;4873015;29;20096;-42
2024/01/11 03:11:51;;;;;;;45.15;28.10;;;-6.00;99.90;;;;;;4877768;29;20060;-41
2024/01/11 03:14:17;;;;;;;45.25;25.85;;;-6.00;99.90;;;;;;4874376;29;20044;-44
2024/01/11 03:16:43;;;;;;;45.10;27.65;;;-6.00;99.90;;;;;;4876526;29;20471;-41
2024/01/11 03:19:08;;;;;;;45.40;27.25;;;-6.00;99.90;;;;;;4858887;29;20059;-41
2024/01/11 03:21:34;;;;;;;44.65;27.67;;;-6.10;99.90;;;;;;4870994;29;20680;-42
2024/01/11 03:23:59;;;;;;;43.92;26.55;;;-6.10;99.90;;;;;;4871412;29;20132;-41
2024/01/11 03:26:25;;;;;;;49.17;27.80;;;-6.20;99.90;;;;;;4869834;29;20347;-41
2024/01/11 03:28:51;;;;;;;45.33;26.85;;;;;;;;;;4876405;29;20048;-42
2024/01/11 03:31:17;;;;;;;45.85;27.73;;;-6.20;99.90;;;;;;4873668;29;20077;-42
2024/01/11 03:33:42;;;;;;;47.70;28.60;;;-6.20;99.90;;;;;;4876190;29;20056;-43
2024/01/11 03:36:09;;;;;;;45.60;28.67;;;-6.20;99.90;;;;;;4869402;29;20077;-41
2024/01/11 03:38:35;;;;;;;51.75;29.45;;;-6.20;99.90;;;;;;4875605;29;20080;-42
2024/01/11 03:41:01;;;;;;;44.22;27.17;;;-6.20;99.90;;;;;;4854723;29;20083;-41
2024/01/11 03:43:27;;;;;;;45.22;25.35;;;-6.10;99.90;;;;;;4873087;29;20491;-41
2024/01/11 03:45:53;;;;;;;49.78;29.63;;;-6.00;99.90;;;;;;4874198;29;20082;-41
2024/01/11 03:48:18;;;;;;;47.80;28.63;;;-5.90;99.90;;;;;;4872034;29;20045;-42
2024/01/11 03:50:44;;;;;;;44.33;25.15;;;-6.00;99.90;;;;;;4872814;29;20056;-43
2024/01/11 03:53:10;;;;;;;50.28;28.63;;;-5.90;99.90;;;;;;4875563;29;20057;-41
2024/01/11 03:55:35;;;;;;;48.20;28.75;;;-5.90;99.90;;;;;;4857800;29;20045;-41
2024/01/11 03:58:01;;;;;;;49.47;29.25;;;-5.90;99.90;;;;;;4875440;29;20072;-41
2024/01/11 04:00:27;;;;;;;52.05;27.02;;;-5.90;99.90;;;;;;4870627;29;20483;-43
2024/01/11 04:02:53;;;;;;;45.60;27.25;;;-5.90;99.90;;;;;;4877096;29;20064;-46
2024/01/11 04:05:18;;;;;;;48.40;28.83;;;-5.90;99.90;;;;;;4875789;29;20113;-43
2024/01/11 04:07:44;;;;;;;47.58;26.00;;;-5.90;99.90;;;;;;4871977;29;20045;-42
2024/01/11 04:10:10;;;;;;;47.85;25.98;;;-5.90;99.90;;;;;;4874121;29;20136;-41
2024/01/11 04:12:36;;;;;;;59.28;29.75;;;-5.90;99.90;;;;;;4872924;29;20040;-43
2024/01/11 04:15:02;;;;;;;51.00;29.52;;;-5.90;99.90;;;;;;4876284;29;20144;-41
2024/01/11 04:17:28;;;;;;;50.55;28.85;;;-6.00;99.90;;;;;;4876012;29;20119;-41
2024/01/11 04:19:53;;;;;;;50.63;29.42;;;-6.10;99.90;;;;;;4871617;29;20055;-45
2024/01/11 04:22:19;;;;;;;53.85;29.13;;;-6.10;99.90;;;;;;4869255;29;20049;-43
2024/01/11 04:24:45;;;;;;;50.28;29.17;;;-6.10;99.90;;;;;;4875206;29;20080;-42
2024/01/11 04:27:10;;;;;;;48.00;27.90;;;-6.10;99.90;;;;;;4855519;29;20056;-42
2024/01/11 04:29:36;;;;;;;50.20;27.55;;;-6.20;99.90;;;;;;4872768;29;20164;-41
2024/01/11 04:32:02;;;;;;;53.90;28.45;;;-6.20;99.90;;;;;;4872092;29;20047;-41
2024/01/11 04:34:27;;;;;;;50.58;28.65;;;-6.20;99.90;;;;;;4870680;29;20132;-42
2024/01/11 04:36:53;;;;;;;53.55;29.98;;;-6.10;99.90;;;;;;4870664;29;20045;-42
2024/01/11 04:39:18;;;;;;;52.05;27.83;;;-6.20;99.90;;;;;;4867442;29;20496;-43
2024/01/11 04:41:44;;;;;;;52.25;29.10;;;-6.20;99.90;;;;;;4873305;29;20049;-41
2024/01/11 04:44:10;;;;;;;52.85;29.45;;;-6.20;99.90;;;;;;4871172;29;20703;-41
2024/01/11 04:46:36;;;;;;;50.90;28.85;;;-6.20;99.90;;;;;;4871786;29;20056;-42
2024/01/11 04:49:01;;;;;;;51.13;29.48;;;-6.20;99.90;;;;;;4869208;29;20555;-41
2024/01/11 04:51:27;;;;;;;47.47;28.80;;;-6.20;99.90;;;;;;4872052;29;20056;-42
2024/01/11 04:53:52;;;;;;;47.78;28.50;;;-6.20;99.90;;;;;;4878545;29;20466;-41
2024/01/11 04:56:18;;;;;;;53.90;28.92;;;-6.20;99.90;;;;;;4872892;29;20075;-41
2024/01/11 04:58:45;;;;;;;52.30;28.92;;;-6.30;99.90;;;;;;4874198;29;20048;-42
2024/01/11 05:01:14;;;;;;;52.03;28.60;;;-6.30;99.90;;;;;;4872873;29;20053;-43
2024/01/11 05:03:40;;;;;;;51.80;29.83;;;-6.30;99.90;;;;;;4870136;29;20072;-41
2024/01/11 05:06:06;;;;;;;52.22;29.83;;;-6.20;99.90;;;;;;4870617;29;20129;-41
2024/01/11 05:08:31;;;;;;;49.40;29.13;;;-6.20;99.90;;;;;;4869218;29;20496;-42
2024/01/11 05:10:57;;;;;;;48.55;28.30;;;-6.30;99.90;;;;;;4869327;29;20488;-41
2024/01/11 05:13:23;;;;;;;45.22;26.00;;;-6.30;99.90;;;;;;4873433;29;20060;-41
2024/01/11 05:15:48;;;;;;;52.45;28.33;;;-6.30;99.90;;;;;;4868659;29;20555;-43
2024/01/11 05:18:14;;;;;;;47.22;27.08;;;-6.30;99.90;;;;;;4872935;29;20520;-41
2024/01/11 05:20:40;;;;;;;49.88;27.45;;;-6.20;99.90;;;;;;4868411;29;20164;-43
2024/01/11 05:23:06;;;;;;;50.38;23.90;;;-6.20;99.90;;;;;;4873538;29;20037;-42
2024/01/11 05:25:34;;;;;;;49.45;27.83;;;-6.10;99.90;;;;;;4870138;29;20041;-42
2024/01/11 05:28:03;;;;;;;51.53;26.92;;;-6.10;99.90;;;;;;4874279;29;20128;-43
2024/01/11 05:30:30;;;;;;;47.40;27.42;;;-6.10;99.90;;;;;;4873100;29;20429;-41
2024/01/11 05:32:56;;;;;;;49.08;27.52;;;-6.00;99.90;;;;;;4870764;29;20064;-41
2024/01/11 05:35:23;;;;;;;39.42;20.63;;;-6.00;99.90;;;;;;4872441;29;20113;-41
2024/01/11 05:37:50;;;;;;;47.08;26.50;;;-6.00;99.90;;;;;;4870143;29;20104;-42
2024/01/11 05:40:16;;;;;;;48.95;27.27;;;-6.00;99.90;;;;;;4873585;29;20116;-43
2024/01/11 05:42:41;;;;;;;39.47;20.95;;;-5.90;99.90;;;;;;4873434;29;20828;-41
2024/01/11 05:45:07;;;;;;;56.00;30.60;;;-5.90;99.90;;;;;;4873733;29;20041;-41
2024/01/11 05:47:33;;;;;;;53.70;29.90;;;-5.90;99.90;;;;;;4869727;29;20157;-42
2024/01/11 05:49:58;;;;;;;49.53;28.08;;;-5.90;99.90;;;;;;4868578;29;21503;-43
2024/01/11 05:52:25;;;;;;;58.13;30.92;;;-5.90;99.90;;;;;;4876301;29;20056;-42
2024/01/11 05:54:50;;;;;;;47.45;24.88;;;-5.90;99.90;;;;;;4873522;29;20119;-42
2024/01/11 05:57:16;;;;;;;56.25;30.83;;;-5.90;99.90;;;;;;4870550;29;20522;-42
2024/01/11 05:59:45;;;;;;;57.05;30.25;;;-5.90;99.90;;;;;;4859391;29;20068;-43
2024/01/11 06:02:12;;;;;;;54.75;29.75;;;-5.90;99.90;;;;;;4870006;29;21250;-42
2024/01/11 06:04:37;;;;;;;56.50;30.67;;;-5.90;99.90;;;;;;4868199;29;20978;-43
2024/01/11 06:07:03;;;;;;;53.80;30.52;;;-6.00;99.90;;;;;;4874863;29;20036;-44
2024/01/11 06:09:29;;;;;;;57.47;30.35;;;-6.00;99.90;;;;;;4869902;29;20072;-43
2024/01/11 06:11:54;;;;;;;60.20;31.98;;;-5.90;99.90;;;;;;4868538;29;20044;-42
2024/01/11 06:14:20;;;;;;;59.67;31.85;;;-6.00;99.90;;;;;;4870385;29;20049;-41
2024/01/11 06:16:46;;;;;;;56.65;29.23;;;-6.00;99.90;;;;;;4853210;29;20057;-43
2024/01/11 06:19:11;;;;;;;56.38;29.48;;;-6.00;99.90;;;;;;4869834;29;20147;-41
2024/01/11 06:21:37;;;;;;;53.53;28.92;;;-5.90;99.90;;;;;;4867983;29;20072;-41
2024/01/11 06:24:03;;;;;;;60.72;31.67;;;-5.90;99.90;;;;;;4868690;29;20532;-41
2024/01/11 06:26:29;;;;;;;51.88;29.50;;;-5.90;99.90;;;;;;4851038;29;20049;-41
2024/01/11 06:28:54;;;;;;;58.95;30.92;;;-5.90;99.90;;;;;;4872913;29;20059;-41
2024/01/11 06:31:20;;;;;;;50.10;26.05;;;-5.90;99.90;;;;;;4870730;29;20109;-41
2024/01/11 06:33:46;;;;;;;56.25;29.70;;;-5.80;99.90;;;;;;4871941;29;20052;-41
2024/01/11 06:36:11;;;;;;;59.30;28.85;;;-5.60;99.90;;;;;;4874568;29;20060;-42
2024/01/11 06:38:37;;;;;;;57.00;28.55;;;-5.50;99.90;;;;;;4872991;29;20041;-41
2024/01/11 06:41:03;;;;;;;53.65;27.67;;;-5.40;99.90;;;;;;4873417;29;20071;-41
2024/01/11 06:43:28;;;;;;;56.58;29.92;;;-5.30;99.90;;;;;;4874975;29;20136;-41
2024/01/11 06:45:54;;;;;;;63.38;31.83;;;-5.20;99.90;;;;;;4873018;29;20064;-42
2024/01/11 06:48:20;;;;;;;55.13;27.58;;;-5.10;99.90;;;;;;4872318;29;20047;-42
2024/01/11 06:50:45;;;;;;;54.05;27.80;;;-5.00;99.90;;;;;;4873884;29;20417;-42
2024/01/11 06:53:11;;;;;;;60.67;31.33;;;-5.00;99.90;;;;;;4877157;29;20061;-42
2024/01/11 06:55:37;;;;;;;62.72;32.20;;;-4.90;99.90;;;;;;4873443;29;20053;-41
2024/01/11 06:58:02;;;;;;;61.72;30.73;;;-4.90;99.90;;;;;;4874170;29;20076;-43
2024/01/11 07:00:28;;;;;;;64.00;31.70;;;-4.80;99.90;;;;;;4860716;29;20052;-42
2024/01/11 07:02:54;;;;;;;66.70;33.00;;;;;;;;;;4875153;29;20082;-42
2024/01/11 07:05:20;;;;;;;70.93;33.92;;;-4.70;99.90;;;;;;4874807;29;20049;-42
2024/01/11 07:07:46;;;;;;;73.43;34.38;;;-4.60;99.90;;;;;;4874765;29;20791;-41
2024/01/11 07:10:12;;;;;;;67.10;32.45;;;-4.50;99.90;;;;;;4877356;29;20077;-42
2024/01/11 07:12:40;;;;;;;67.53;31.83;;;-4.50;99.90;;;;;;4871924;29;20092;-42
2024/01/11 07:15:07;;;;;;;71.40;32.35;;;-4.40;99.90;;;;;;4871554;29;20489;-43
2024/01/11 07:17:33;;;;;;;68.47;33.27;;;-4.40;99.90;;;;;;4871666;29;20056;-41
2024/01/11 07:19:59;;;;;;;74.95;34.45;;;-4.40;99.90;;;;;;4877126;29;20297;-43
2024/01/11 07:22:24;;;;;;;72.00;33.58;;;-4.30;99.90;;;;;;4874821;29;20381;-42
2024/01/11 07:24:51;;;;;;;74.18;34.92;;;-4.30;99.90;;;;;;4871291;29;20108;-42
2024/01/11 07:27:17;;;;;;;74.22;33.88;;;-4.20;99.90;;;;;;4869566;29;20041;-41
2024/01/11 07:29:42;;;;;;;74.88;33.28;;;-4.20;99.90;;;;;;4867720;29;20047;-42
2024/01/11 07:32:08;;;;;;;83.80;35.85;;;-4.10;99.90;;;;;;4868320;29;20041;-42
2024/01/11 07:34:34;;;;;;;85.38;36.42;;;-4.10;99.90;;;;;;4873640;29;20664;-43
2024/01/11 07:36:59;;;;;;;86.93;34.95;;;-4.00;99.90;;;;;;4874835;29;20395;-42
2024/01/11 07:39:25;;;;;;;77.95;35.70;;;-4.00;99.90;;;;;;4875252;29;20047;-41
2024/01/11 07:41:50;;;;;;;74.20;33.53;;;-4.00;99.90;;;;;;4872112;29;20052;-42
2024/01/11 07:44:16;;;;;;;88.65;35.60;;;-4.00;99.90;;;;;;4875114;29;20164;-42
2024/01/11 07:46:42;;;;;;;80.32;31.85;;;-3.90;99.90;;;;;;4872180;29;20045;-42
2024/01/11 07:49:08;;;;;;;76.00;33.13;;;-3.90;99.90;;;;;;4873541;29;20061;-42
2024/01/11 07:51:37;;;;;;;80.32;35.85;;;-3.80;99.90;;;;;;4877592;29;20123;-41
2024/01/11 07:54:02;;;;;;;84.72;37.25;;;-3.80;99.90;;;;;;4874624;29;20531;-41
2024/01/11 07:56:29;;;;;;;83.20;35.45;;;-3.80;99.90;;;;;;4869995;29;20049;-44
2024/01/11 07:58:55;;;;;;;77.30;34.38;;;-3.80;99.90;;;;;;4868763;29;20072;-42
2024/01/11 08:01:20;;;;;;;85.85;37.08;;;-3.70;99.90;;;;;;4871462;29;20084;-41
2024/01/11 08:03:47;;;;;;;82.30;35.40;;;-3.70;99.90;;;;;;4874153;29;20238;-42
2024/01/11 08:06:13;;;;;;;88.28;36.30;;;-3.60;99.90;;;;;;4855155;29;20053;-41
2024/01/11 08:08:41;;;;;;;92.18;36.90;;;-3.50;99.90;;;;;;4873394;29;20484;-42
2024/01/11 08:11:07;;;;;;;85.38;37.22;;;-3.50;99.90;;;;;;4863184;29;20072;-44
2024/01/11 08:13:34;;;;;;;89.35;37.58;;;-3.50;99.90;;;;;;4874735;29;20041;-43
2024/01/11 08:16:01;;;;;;;94.30;37.80;;;-3.40;99.90;;;;;;4875931;29;20128;-43
2024/01/11 08:18:27;;;;;;;95.00;37.95;;;-3.30;99.90;;;;;;4875532;29;20045;-43
2024/01/11 08:20:52;;;;;;;91.25;37.03;;;-3.30;99.90;;;;;;4875618;29;20112;-44
2024/01/11 08:23:18;;;;;;;88.57;35.65;;;-3.30;99.90;;;;;;4878198;29;20093;-42
2024/01/11 08:25:43;;;;;;;85.10;37.67;;;-3.30;99.90;;;;;;4878225;29;20037;-43
2024/01/11 08:28:09;;;;;;;84.30;36.50;;;-3.20;99.90;;;;;;4878424;29;20760;-43
2024/01/11 08:30:34;;;;;;;84.10;37.20;;;-3.20;99.90;;;;;;4876779;29;20049;-45
2024/01/11 08:33:00;;;;;;;82.35;34.92;;;-3.10;99.90;;;;;;4876137;29;20484;-43
2024/01/11 08:35:26;;;;;;;85.13;36.47;;;-3.10;99.90;;;;;;4877260;29;20037;-42
2024/01/11 08:37:51;;;;;;;86.43;36.80;;;-3.00;99.90;;;;;;4876078;29;20043;-43
2024/01/11 08:40:17;;;;;;;90.03;37.30;;;-3.00;99.90;;;;;;4876444;29;20041;-46
2024/01/11 08:42:43;;;;;;;80.45;36.00;;;-3.00;99.90;;;;;;4876789;29;20500;-43
2024/01/11 08:45:09;;;;;;;86.43;36.40;;;-2.90;99.90;;;;;;4861083;29;20045;-43
2024/01/11 08:47:38;;;;;;;81.72;36.78;;;-2.80;99.90;;;;;;4876170;29;20041;-43
2024/01/11 08:50:06;;;;;;;89.15;38.85;;;-2.80;99.90;;;;;;4872268;29;20060;-42
2024/01/11 08:52:32;;;;;;;88.38;36.13;;;;;;;;;;4879516;29;20160;-42
2024/01/11 08:54:58;;;;;;;84.05;36.17;;;-2.70;99.90;;;;;;4876810;29;20388;-42
2024/01/11 08:57:23;;;;;;;85.28;36.67;;;-2.60;99.90;;;;;;4875541;29;21291;-43
2024/01/11 08:59:49;;;;;;;85.30;37.10;;;-2.60;99.90;;;;;;4881484;29;20045;-41
2024/01/11 09:02:15;;;;;;;82.18;35.42;;;-2.60;99.90;;;;;;4877759;29;20056;-43
2024/01/11 09:04:40;;;;;;;75.20;35.35;;;-2.50;99.90;;;;;;4877343;29;20544;-42
2024/01/11 09:07:06;;;;;;;76.00;33.88;;;-2.50;99.90;;;;;;4877558;29;20041;-42
2024/01/11 09:09:32;;;;;;;74.95;35.55;;;-2.40;99.90;;;;;;4886018;29;20045;-42
2024/01/11 09:11:58;;;;;;;84.13;36.35;;;;;;;;;;4878023;29;20037;-43
2024/01/11 09:14:24;;;;;;;75.82;35.60;;;;;;;;;;4876735;29;20105;-42
2024/01/11 09:16:49;;;;;;;80.63;35.03;;;-1.90;99.90;;;;;;4887545;29;20037;-43
2024/01/11 09:19:15;;;;;;;83.60;36.15;;;-2.10;99.90;;;;;;4880676;29;20077;-43
2024/01/11 09:21:42;;;;;;;81.22;35.72;;;-2.10;99.90;;;;;;4878791;29;20136;-43
2024/01/11 09:24:07;;;;;;;75.45;34.50;;;-2.10;99.90;;;;;;4878187;29;20105;-43
2024/01/11 09:26:33;;;;;;;75.43;35.00;;;-2.00;99.90;;;;;;4877554;29;20453;-43
2024/01/11 09:28:59;;;;;;;85.15;37.70;;;;;;;;;;4873419;29;20140;-43
2024/01/11 09:31:24;;;;;;;73.75;35.33;;;-1.90;99.90;;;;;;4859656;29;20386;-41
2024/01/11 09:33:50;;;;;;;73.78;35.55;;;-1.90;99.90;;;;;;4859711;29;20098;-41
2024/01/11 09:36:16;;;;;;;73.88;34.63;;;;;;;;;;4842814;29;20125;-42
2024/01/11 09:38:42;;;;;;;78.30;36.78;;;-1.60;99.90;;;;;;4860517;29;20046;-41
2024/01/11 09:41:13;;;;;;;76.15;34.20;;;-1.80;99.90;;;;;;4877738;29;20055;-43
2024/01/11 09:43:45;;;;;;;79.78;36.47;;;-1.70;99.90;;;;;;4886399;29;20060;-41
2024/01/11 09:46:12;;;;;;;72.18;34.58;;;-1.60;99.90;;;;;;4876997;29;20049;-42
2024/01/11 09:48:43;;;;;;;73.07;34.47;;;-1.60;99.90;;;;;;4877799;29;20492;-42
2024/01/11 09:51:13;;;;;;;77.88;35.40;;;-1.50;99.90;;;;;;4876620;29;20067;-42
2024/01/11 09:53:42;;;;;;;66.78;32.72;;;-1.40;99.90;;;;;;4861020;29;20052;-42
2024/01/11 09:56:09;;;;;;;;;;;-1.40;99.90;;;;;;4869091;29;20034;-43
2024/01/11 09:58:38;;;;;;;72.65;32.63;;;-1.40;99.90;;;;;;4868240;29;19964;-42
2024/01/11 10:01:10;;;;;;;69.75;32.60;;;-1.30;99.90;;;;;;4877644;29;20412;-43
2024/01/11 10:03:36;;;;;;;65.82;32.13;;;-1.30;99.90;;;;;;4877768;29;20041;-43
2024/01/11 10:06:05;;;;;;;68.80;33.33;;;;;;;;;;4873760;29;20080;-42
2024/01/11 10:08:33;;;;;;;73.10;34.55;;;;;;;;;;4878672;29;20049;-43
2024/01/11 10:10:59;;;;;;;73.20;33.50;;;-1.00;99.90;;;;;;4881220;29;20053;-44
2024/01/11 10:13:29;;;;;;;74.60;34.88;;;-1.00;99.90;;;;;;4881552;29;20121;-43
2024/01/11 10:16:21;;;;;;;72.13;33.20;;;-0.90;99.90;;;;;;4881428;29;20045;-43
2024/01/11 10:18:47;;;;;;;79.50;36.40;;;-0.70;99.90;;;;;;4876418;29;20053;-43
2024/01/11 10:21:13;;;;;;;71.38;33.20;;;-0.60;99.90;;;;;;4886834;29;20064;-45
2024/01/11 10:23:40;;;;;;;75.85;34.55;;;;;;;;;;4885881;29;20136;-43
2024/01/11 10:26:07;;;;;;;72.57;34.45;;;;;;;;;;4896470;29;20136;-44
2024/01/11 10:28:37;;;;;;;69.07;35.77;;;;;;;;;;4881926;29;20105;-44
2024/01/11 10:31:04;;;;;;;67.50;32.58;;;;;;;;;;4870693;29;20472;-43
2024/01/11 10:33:30;;;;;;;69.88;33.55;;;-0.30;99.90;;;;;;4894498;29;20129;-42
2024/01/11 10:35:56;;;;;;;66.60;32.83;;;-0.30;99.90;;;;;;4879567;29;20061;-43
2024/01/11 10:38:24;;;;;;;70.97;33.63;;;-0.20;99.90;;;;;;4884851;29;20049;-43
2024/01/11 10:40:51;;;;;;;68.00;33.58;;;-0.10;99.90;;;;;;4880473;29;20100;-42
2024/01/11 10:43:21;;;;;;;67.32;33.08;;;-0.20;99.90;;;;;;4881595;29;20119;-42
2024/01/11 10:45:48;;;;;;;67.45;33.53;;;-0.20;99.90;;;;;;4880170;29;20049;-42
2024/01/11 10:48:15;;;;;;;66.28;32.63;;;-0.10;99.90;;;;;;4881000;29;20052;-42
2024/01/11 10:50:45;;;;;;;67.55;33.85;;;0.00;99.90;;;;;;4865145;29;20072;-43
2024/01/11 10:53:41;;;;;;;62.58;32.13;;;0.00;99.90;;;;;;4863379;29;20460;-42
2024/01/11 10:56:07;;;;;;;65.47;32.33;;;0.10;99.90;;;;;;4877910;29;20053;-41
2024/01/11 10:58:37;;;;;;;66.07;32.72;;;0.10;99.90;;;;;;4880144;29;20061;-42
2024/01/11 11:01:05;;;;;;;63.08;33.03;;;0.10;99.90;;;;;;4879985;29;20080;-42
2024/01/11 11:03:33;;;;;;;61.37;32.07;;;0.20;99.90;;;;;;4885068;29;20048;-43
2024/01/11 11:06:00;;;;;;;58.65;30.75;;;0.20;99.90;;;;;;4880886;29;20052;-43
2024/01/11 11:08:27;;;;;;;62.55;31.42;;;0.30;99.90;;;;;;4880024;29;20153;-42
2024/01/11 11:10:57;;;;;;;69.63;32.78;;;0.40;99.90;;;;;;4878413;29;20117;-41
2024/01/11 11:13:23;;;;;;;68.28;32.78;;;0.40;99.90;;;;;;4868653;29;20052;-42
2024/01/11 11:15:49;;;;;;;68.00;34.35;;;0.40;99.90;;;;;;4879518;29;20049;-41
2024/01/11 11:18:16;;;;;;;66.00;33.83;;;0.40;99.90;;;;;;4889518;29;20041;-42
2024/01/11 11:20:42;;;;;;;63.95;32.67;;;0.50;99.90;;;;;;4886927;29;20049;-42
2024/01/11 11:23:15;;;;;;;61.88;32.83;;;0.50;99.90;;;;;;4891852;29;20048;-42
2024/01/11 11:25:42;;;;;;;62.17;32.10;;;0.50;99.90;;;;;;4883020;29;20140;-44
2024/01/11 11:28:08;;;;;;;59.30;30.23;;;0.60;99.90;;;;;;4881068;29;20116;-42
2024/01/11 11:30:40;;;;;;;57.10;30.38;;;0.60;99.90;;;;;;4881654;29;20599;-43
2024/01/11 11:33:25;;;;;;;62.63;31.15;;;0.60;99.90;;;;;;4880503;29;20171;-41
2024/01/11 11:35:57;;;;;;;54.10;30.17;;;0.60;99.90;;;;;;4879758;29;20104;-43
2024/01/11 11:38:28;;;;;;;57.30;30.98;;;0.60;99.90;;;;;;4882712;29;20040;-42
2024/01/11 11:40:56;;;;;;;56.28;30.38;;;0.70;99.90;;;;;;4886373;29;20159;-43
2024/01/11 11:43:22;;;;;;;57.17;30.77;;;0.70;99.90;;;;;;4879620;29;20097;-42
2024/01/11 11:45:50;;;;;;;54.00;30.17;;;0.80;99.90;;;;;;4885139;29;20044;-42
2024/01/11 11:48:32;;;;;;;60.00;30.77;;;0.80;99.90;;;;;;4891470;29;20071;-42
2024/01/11 11:51:11;;;;;;;57.45;30.63;;;0.90;99.90;;;;;;4888105;29;20060;-41
2024/01/11 11:53:38;;;;;;;56.60;29.92;;;0.90;99.90;;;;;;4889456;29;20044;-43
2024/01/11 11:56:05;;;;;;;57.25;30.05;;;0.90;99.90;;;;;;4889808;29;20045;-43
2024/01/11 11:58:31;;;;;;;57.10;29.38;;;1.00;99.90;;;;;;4883844;29;20048;-42
2024/01/11 12:00:58;;;;;;;58.80;31.25;;;1.00;99.90;;;;;;4885129;29;20044;-44
2024/01/11 12:03:30;;;;;;;64.78;31.27;;;1.00;99.90;;;;;;4891194;29;20050;-44
2024/01/11 12:05:56;;;;;;;56.33;29.13;;;1.20;99.90;;;;;;4888097;29;20488;-41
2024/01/11 12:08:22;;;;;;;60.88;31.67;;;1.10;99.90;;;;;;4885328;29;20052;-43
2024/01/11 12:10:48;;;;;;;62.30;30.38;;;1.20;99.90;;;;;;4885350;29;20396;-43
2024/01/11 12:13:14;;;;;;;57.88;30.67;;;1.20;99.90;;;;;;4882510;29;20095;-42
2024/01/11 12:15:40;;;;;;;57.25;29.15;;;1.20;99.90;;;;;;4886530;29;20052;-42
2024/01/11 12:18:07;;;;;;;57.15;27.88;;;1.30;99.90;;;;;;4879271;29;20059;-43
2024/01/11 12:20:33;;;;;;;56.50;30.45;;;1.30;99.90;;;;;;4887047;29;20041;-43
2024/01/11 12:22:59;;;;;;;60.45;29.95;;;1.40;99.90;;;;;;4878989;29;20041;-43
2024/01/11 12:25:26;;;;;;;50.10;28.90;;;1.40;99.90;;;;;;4886731;29;20041;-43
2024/01/11 12:27:52;;;;;;;49.58;27.65;;;1.40;99.90;;;;;;4878143;29;20408;-43
2024/01/11 12:30:17;;;;;;;52.67;27.67;;;1.40;99.90;;;;;;4883124;29;20037;-41